Time;durP1;ratioP1;P1;durP2;ratioP2;P2;SDS_P1;SDS_P2;PMS_P1;PMS_P2;Temp;Humidity;BMP_temperature;BMP_pressure;BME280_temperature;BME280_humidity;BME280_pressure;Samples;Min_cycle;Max_cycle;Signal;HPM_P1;HPM_P2
2023/10/26 00:00:38;;;;;;;0.97;0.50;;;;;;;12.02;100.00;96355.97;5075535;28;20217;-74
2023/10/26 00:03:04;;;;;;;0.70;0.50;;;;;;;12.02;100.00;96351.41;5076203;28;20300;-74
2023/10/26 00:05:31;;;;;;;0.53;0.50;;;;;;;12.10;100.00;96355.38;5075637;28;20197;-74
2023/10/26 00:07:57;;;;;;;2.20;0.60;;;;;;;12.08;100.00;96355.66;5075494;28;20222;-74
2023/10/26 00:10:23;;;;;;;1.53;0.60;;;;;;;12.10;100.00;96353.53;5075582;28;20212;-74
2023/10/26 00:12:50;;;;;;;1.17;0.70;;;;;;;12.14;100.00;96361.78;5075580;28;20204;-74
2023/10/26 00:15:16;;;;;;;0.97;0.60;;;;;;;12.27;100.00;96361.22;5075363;28;20226;-74
2023/10/26 00:17:42;;;;;;;3.27;0.60;;;;;;;12.27;100.00;96361.22;5075390;28;20301;-74
2023/10/26 00:20:09;;;;;;;1.40;0.60;;;;;;;12.27;100.00;96347.91;5075024;28;20667;-74
2023/10/26 00:22:36;;;;;;;0.90;0.60;;;;;;;12.30;100.00;96353.47;5075524;28;20217;-74
2023/10/26 00:25:03;;;;;;;1.33;0.53;;;;;;;12.44;100.00;96348.41;5075300;28;20200;-74
2023/10/26 00:27:29;;;;;;;2.03;0.47;;;;;;;12.40;100.00;96352.66;5075142;28;20231;-74
2023/10/26 00:29:55;;;;;;;0.53;0.50;;;;;;;12.44;100.00;96354.50;5075172;28;20214;-74
2023/10/26 00:32:22;;;;;;;1.00;0.50;;;;;;;12.37;100.00;96348.69;5075094;28;20206;-74
2023/10/26 00:34:49;;;;;;;0.50;0.50;;;;;;;12.31;100.00;96344.44;5074967;28;20227;-74
2023/10/26 00:37:15;;;;;;;0.40;0.40;;;;;;;12.25;100.00;96350.06;5074846;28;20213;-74
2023/10/26 00:39:42;;;;;;;2.20;0.70;;;;;;;12.17;100.00;96348.72;5074292;28;20214;-74
2023/10/26 00:42:08;;;;;;;0.83;0.50;;;;;;;12.10;100.00;96347.41;5074861;28;20211;-74
2023/10/26 00:44:34;;;;;;;1.40;0.40;;;;;;;12.13;100.00;96349.53;5074894;28;20211;-74
2023/10/26 00:47:01;;;;;;;0.60;0.60;;;;;;;11.94;100.00;96337.84;5074400;28;20572;-74
2023/10/26 00:49:27;;;;;;;1.40;0.57;;;;;;;11.90;100.00;96348.25;5074848;28;20566;-74
2023/10/26 00:52:00;;;;;;;1.70;0.70;;;;;;;11.80;100.00;96345.56;5074816;28;20300;-74
2023/10/26 00:54:28;;;;;;;1.07;0.70;;;;;;;11.92;100.00;96334.66;5074333;28;20219;-74
2023/10/26 00:56:55;;;;;;;2.20;0.50;;;;;;;11.90;100.00;96337.59;5074562;28;20210;-74
2023/10/26 00:59:22;;;;;;;0.70;0.47;;;;;;;11.83;100.00;96331.75;5074505;28;20202;-74
2023/10/26 01:01:49;;;;;;;1.27;0.60;;;;;;;11.81;100.00;96335.75;5074165;28;20225;-74
2023/10/26 01:04:16;;;;;;;1.97;0.60;;;;;;;11.82;100.00;96340.81;5074466;28;20205;-74
2023/10/26 01:06:43;;;;;;;1.73;0.60;;;;;;;11.63;100.00;96331.75;5074401;28;20209;-74
2023/10/26 01:09:10;;;;;;;2.63;0.87;;;;;;;11.77;100.00;96337.34;5074324;28;20221;-74
2023/10/26 01:11:37;;;;;;;2.73;0.70;;;;;;;11.71;100.00;96341.06;5074319;28;20668;-74
2023/10/26 01:14:04;;;;;;;0.80;0.60;;;;;;;11.60;100.00;96334.94;5074314;28;20210;-74
2023/10/26 01:16:31;;;;;;;6.03;0.70;;;;;;;11.63;100.00;96339.75;5073981;28;20243;-74
2023/10/26 01:19:05;;;;;;;1.47;0.60;;;;;;;11.63;100.00;96342.41;5074261;28;20251;-74
2023/10/26 01:21:32;;;;;;;1.80;0.57;;;;;;;11.57;100.00;96337.31;5074938;28;20208;-74
2023/10/26 01:23:58;;;;;;;1.33;0.70;;;;;;;11.21;100.00;96343.69;5074236;28;20211;-74
2023/10/26 01:26:25;;;;;;;1.03;0.50;;;;;;;10.96;100.00;96347.09;5074357;28;20204;-74
2023/10/26 01:28:51;;;;;;;3.63;0.60;;;;;;;11.12;100.00;96351.34;5074073;28;20225;-74
2023/10/26 01:31:18;;;;;;;1.10;0.60;;;;;;;11.12;100.00;96343.38;5074262;28;20216;-74
2023/10/26 01:33:46;;;;;;;0.50;0.50;;;;;;;11.12;100.00;96354.03;5074090;28;20263;-74
2023/10/26 01:36:12;;;;;;;2.23;0.53;;;;;;;11.18;100.00;96353.00;5073947;28;20231;-74
2023/10/26 01:38:39;;;;;;;3.80;0.60;;;;;;;11.20;100.00;96350.84;5073505;28;20707;-74
2023/10/26 01:41:05;;;;;;;2.80;0.60;;;;;;;11.19;100.00;96342.06;5073917;28;20208;-74
2023/10/26 01:43:31;;;;;;;2.10;0.70;;;;;;;11.16;100.00;96341.78;5073900;28;20213;-74
2023/10/26 01:45:58;;;;;;;2.70;0.80;;;;;;;11.27;100.00;96343.44;5073789;28;20655;-74
2023/10/26 01:48:24;;;;;;;1.23;0.60;;;;;;;11.25;100.00;96344.75;5073501;28;20728;-74
2023/10/26 01:50:51;;;;;;;1.07;0.70;;;;;;;11.07;100.00;96342.59;5073552;28;20204;-74
2023/10/26 01:53:17;;;;;;;2.47;0.83;;;;;;;10.95;100.00;96340.19;5073935;28;20211;-74
2023/10/26 01:55:43;;;;;;;0.63;0.50;;;;;;;11.16;100.00;96333.03;5073602;28;20220;-74
2023/10/26 01:58:10;;;;;;;2.53;0.80;;;;;;;11.09;100.00;96335.94;5073617;28;20220;-74
2023/10/26 02:00:36;;;;;;;3.20;0.60;;;;;;;11.22;100.00;96332.78;5073559;28;20217;-74
2023/10/26 02:03:02;;;;;;;0.50;0.50;;;;;;;11.21;100.00;96330.38;5073640;28;20205;-74
2023/10/26 02:05:29;;;;;;;1.13;0.70;;;;;;;11.13;100.00;96337.03;5073596;28;20211;-74
2023/10/26 02:07:55;;;;;;;3.70;0.70;;;;;;;11.17;100.00;96335.41;5073477;28;20235;-74
2023/10/26 02:10:23;;;;;;;1.87;0.70;;;;;;;11.25;100.00;96331.47;5073476;28;20223;-74
2023/10/26 02:12:50;;;;;;;2.10;0.53;;;;;;;11.25;100.00;96344.75;5073507;28;20286;-74
2023/10/26 02:15:17;;;;;;;1.43;0.50;;;;;;;11.34;100.00;96335.97;5073448;28;20274;-74
2023/10/26 02:17:43;;;;;;;0.83;0.50;;;;;;;11.41;100.00;96344.50;5073355;28;20220;-74
2023/10/26 02:20:10;;;;;;;0.43;0.40;;;;;;;11.43;100.00;96338.91;5074239;28;20206;-74
2023/10/26 02:22:36;;;;;;;1.40;0.60;;;;;;;11.52;100.00;96350.63;5073137;28;20663;-74
2023/10/26 02:25:02;;;;;;;1.13;0.60;;;;;;;11.46;100.00;96354.34;5073140;28;20209;-74
2023/10/26 02:27:29;;;;;;;0.40;0.40;;;;;;;11.49;100.00;96343.94;5073303;28;20228;-74
2023/10/26 02:29:55;;;;;;;0.97;0.50;;;;;;;11.61;100.00;96351.72;5073341;28;20209;-74
2023/10/26 02:32:21;;;;;;;1.30;0.60;;;;;;;11.69;100.00;96335.19;5073434;28;20200;-74
2023/10/26 02:34:48;;;;;;;1.50;0.50;;;;;;;11.61;100.00;96335.75;5073261;28;20688;-74
2023/10/26 02:37:14;;;;;;;5.50;0.50;;;;;;;11.61;100.00;96341.09;5073127;28;20683;-74
2023/10/26 02:39:41;;;;;;;0.60;0.60;;;;;;;11.53;100.00;96342.34;5073542;28;20210;-74
2023/10/26 02:42:08;;;;;;;1.07;0.50;;;;;;;11.68;100.00;96341.59;5073236;28;20201;-74
2023/10/26 02:44:35;;;;;;;0.60;0.40;;;;;;;11.57;100.00;96338.09;5073224;28;20291;-74
2023/10/26 02:47:01;;;;;;;1.60;0.47;;;;;;;11.48;100.00;96355.66;5073062;28;20205;-74
2023/10/26 02:49:28;;;;;;;2.17;0.50;;;;;;;11.42;100.00;96351.41;5073356;28;20208;-74
2023/10/26 02:51:54;;;;;;;1.60;0.60;;;;;;;11.51;100.00;96349.00;5072999;28;20205;-74
2023/10/26 02:54:20;;;;;;;0.60;0.40;;;;;;;11.38;100.00;96352.19;5072901;28;20201;-74
2023/10/26 02:56:47;;;;;;;2.97;0.60;;;;;;;11.19;100.00;96341.28;5073128;28;20205;-74
2023/10/26 02:59:13;;;;;;;1.67;0.70;;;;;;;11.24;100.00;96338.63;5072948;28;20221;-74
2023/10/26 03:01:39;;;;;;;1.80;0.53;;;;;;;11.24;100.00;96341.28;5074066;28;20235;-74
2023/10/26 03:04:06;;;;;;;0.60;0.60;;;;;;;11.27;100.00;96350.59;5076689;28;20204;-74
2023/10/26 03:06:40;;;;;;;1.00;0.40;;;;;;;11.37;100.00;96347.94;5076655;28;20208;-74
2023/10/26 03:09:08;;;;;;;0.70;0.50;;;;;;;11.38;100.00;96345.03;5076390;28;20591;-74
2023/10/26 03:11:35;;;;;;;1.40;0.60;;;;;;;11.29;100.00;96341.28;5076506;28;20211;-74
2023/10/26 03:14:02;;;;;;;1.47;0.40;;;;;;;11.17;100.00;96343.38;5076593;28;20239;-74
2023/10/26 03:16:28;;;;;;;0.63;0.53;;;;;;;11.26;100.00;96341.81;5076144;28;20672;-74
2023/10/26 03:18:55;;;;;;;1.90;0.50;;;;;;;11.15;100.00;96350.84;5076404;28;20224;-74
2023/10/26 03:21:21;;;;;;;0.73;0.50;;;;;;;11.26;100.00;96351.66;5076375;28;20215;-74
2023/10/26 03:23:52;;;;;;;1.17;0.60;;;;;;;10.96;100.00;96347.09;5077246;28;20563;-74
2023/10/26 03:26:21;;;;;;;0.57;0.50;;;;;;;10.88;100.00;96344.94;5076471;28;20283;-74
2023/10/26 03:28:52;;;;;;;0.90;0.53;;;;;;;10.82;100.00;96351.31;5076285;28;20250;-74
2023/10/26 03:31:18;;;;;;;1.47;0.50;;;;;;;10.89;100.00;96350.00;5076010;28;20209;-74
2023/10/26 03:33:45;;;;;;;1.70;0.40;;;;;;;10.81;100.00;96344.38;5075959;28;20201;-74
2023/10/26 03:36:15;;;;;;;1.27;0.60;;;;;;;10.78;100.00;96351.00;5075812;28;20235;-74
2023/10/26 03:38:42;;;;;;;1.07;0.53;;;;;;;10.70;100.00;96348.06;5075769;28;20235;-74
2023/10/26 03:41:09;;;;;;;1.40;0.60;;;;;;;10.77;100.00;96345.97;5075912;28;20209;-74
2023/10/26 03:43:36;;;;;;;0.93;0.60;;;;;;;10.57;100.00;96344.03;5075866;28;20205;-74
2023/10/26 03:46:02;;;;;;;1.93;0.67;;;;;;;10.64;100.00;96346.47;5076002;28;20199;-74
2023/10/26 03:48:29;;;;;;;1.57;0.70;;;;;;;10.42;100.00;96353.78;5076058;28;20236;-74
2023/10/26 03:50:55;;;;;;;2.40;0.80;;;;;;;10.32;100.00;96356.41;5075624;28;20204;-74
2023/10/26 03:53:22;;;;;;;1.10;0.80;;;;;;;10.41;100.00;96352.22;5075800;28;20204;-74
2023/10/26 03:55:49;;;;;;;1.20;0.70;;;;;;;10.26;100.00;96338.81;5075366;28;20270;-74
2023/10/26 03:58:15;;;;;;;1.50;0.80;;;;;;;10.41;100.00;96344.22;5075663;28;20220;-74
2023/10/26 04:00:42;;;;;;;1.37;0.70;;;;;;;10.35;100.00;96342.59;5075301;28;20216;-74
2023/10/26 04:03:08;;;;;;;0.87;0.73;;;;;;;10.30;100.00;96331.94;5075308;28;20361;-74
2023/10/26 04:05:35;;;;;;;1.17;0.73;;;;;;;10.33;100.00;96336.75;5075617;28;20196;-75
2023/10/26 04:08:03;;;;;;;1.57;0.70;;;;;;;10.37;100.00;96335.19;5076416;28;20224;-74
2023/10/26 04:10:30;;;;;;;1.93;0.80;;;;;;;10.36;100.00;96333.59;5075519;28;20208;-74
2023/10/26 04:12:56;;;;;;;2.00;0.60;;;;;;;10.49;100.00;96338.41;5075437;28;20211;-74
2023/10/26 04:15:23;;;;;;;0.80;0.80;;;;;;;10.38;100.00;96326.97;5075434;28;20221;-74
2023/10/26 04:17:50;;;;;;;2.27;0.67;;;;;;;10.46;100.00;96331.75;5074826;28;20235;-74
2023/10/26 04:20:16;;;;;;;0.93;0.60;;;;;;;10.49;100.00;96323.28;5075331;28;20588;-74
2023/10/26 04:22:43;;;;;;;3.43;0.80;;;;;;;10.56;100.00;96331.00;5074878;28;20667;-74
2023/10/26 04:25:09;;;;;;;0.77;0.70;;;;;;;10.58;100.00;96321.72;5075085;28;20200;-74
2023/10/26 04:27:36;;;;;;;1.00;0.73;;;;;;;10.59;100.00;96323.31;5074849;28;20225;-74
2023/10/26 04:30:02;;;;;;;1.67;0.70;;;;;;;10.57;100.00;96321.97;5075050;28;20204;-74
2023/10/26 04:32:29;;;;;;;1.30;0.83;;;;;;;10.53;100.00;96320.88;5074889;28;20213;-74
2023/10/26 04:34:55;;;;;;;2.97;0.97;;;;;;;10.47;100.00;96322.75;5074685;28;20207;-74
2023/10/26 04:37:22;;;;;;;2.00;0.90;;;;;;;10.47;100.00;96322.75;5074759;28;20220;-74
2023/10/26 04:39:48;;;;;;;1.70;0.80;;;;;;;10.52;100.00;96327.28;5074394;28;20288;-74
2023/10/26 04:42:14;;;;;;;2.00;0.70;;;;;;;10.62;100.00;96325.44;5074730;28;20211;-74
2023/10/26 04:44:41;;;;;;;0.80;0.70;;;;;;;10.59;100.00;96333.16;5074018;28;20211;-74
2023/10/26 04:47:07;;;;;;;1.90;0.87;;;;;;;10.50;100.00;96324.09;5074332;28;20207;-74
2023/10/26 04:49:34;;;;;;;3.63;1.67;;;;;;;10.41;100.00;96329.09;5073918;28;20201;-74
2023/10/26 04:52:01;;;;;;;3.77;1.70;;;;;;;10.39;100.00;96317.94;5074903;28;20212;-74
2023/10/26 04:54:28;;;;;;;2.37;0.93;;;;;;;10.43;100.00;96315.53;5074063;28;20648;-74
2023/10/26 04:56:55;;;;;;;2.20;0.80;;;;;;;10.50;100.00;96310.81;5073736;28;20236;-74
2023/10/26 04:59:22;;;;;;;1.97;0.60;;;;;;;10.39;100.00;96315.28;5074121;28;20605;-74
2023/10/26 05:01:48;;;;;;;0.63;0.63;;;;;;;10.45;100.00;96308.13;5073724;28;20213;-74
2023/10/26 05:04:14;;;;;;;1.50;0.60;;;;;;;10.56;100.00;96304.44;5073740;28;20291;-74
2023/10/26 05:06:41;;;;;;;1.53;0.57;;;;;;;10.53;100.00;96307.59;5074685;28;20287;-74
2023/10/26 05:09:07;;;;;;;0.60;0.60;;;;;;;10.62;100.00;96298.06;5073917;28;20224;-74
2023/10/26 05:11:34;;;;;;;0.67;0.60;;;;;;;10.73;100.00;96289.84;5073763;28;20208;-74
2023/10/26 05:14:03;;;;;;;2.07;0.60;;;;;;;10.71;100.00;96301.81;5073678;28;20209;-74
2023/10/26 05:16:29;;;;;;;0.50;0.50;;;;;;;10.50;100.00;96305.50;5073632;28;20236;-74
2023/10/26 05:18:56;;;;;;;0.97;0.80;;;;;;;10.58;100.00;96302.31;5073745;28;20236;-74
2023/10/26 05:21:22;;;;;;;1.50;0.80;;;;;;;10.53;100.00;96307.59;5073522;28;20215;-74
2023/10/26 05:23:48;;;;;;;0.73;0.70;;;;;;;10.50;100.00;96300.97;5073011;28;20208;-74
2023/10/26 05:26:15;;;;;;;1.07;0.80;;;;;;;10.54;100.00;96295.94;5073012;28;20667;-74
2023/10/26 05:28:41;;;;;;;3.53;0.70;;;;;;;10.51;100.00;96294.56;5073436;28;20228;-74
2023/10/26 05:31:08;;;;;;;1.30;0.80;;;;;;;10.56;100.00;96296.47;5073457;28;20212;-74
2023/10/26 05:33:34;;;;;;;0.90;0.70;;;;;;;10.54;100.00;96295.94;5073472;28;20215;-74
2023/10/26 05:36:00;;;;;;;1.40;0.70;;;;;;;10.68;100.00;96291.72;5073212;28;20228;-74
2023/10/26 05:38:27;;;;;;;1.43;0.80;;;;;;;10.64;100.00;96288.78;5073179;28;20231;-74
2023/10/26 05:40:56;;;;;;;1.57;0.80;;;;;;;10.83;100.00;96276.63;5073250;28;20693;-74
2023/10/26 05:43:23;;;;;;;1.60;0.73;;;;;;;10.84;100.00;96290.69;5073369;28;20287;-74
2023/10/26 05:45:49;;;;;;;1.40;0.63;;;;;;;10.86;100.00;96277.94;5073363;28;20209;-74
2023/10/26 05:48:16;;;;;;;1.97;0.80;;;;;;;10.74;100.00;96280.03;5073515;28;20234;-74
2023/10/26 05:50:43;;;;;;;1.53;0.67;;;;;;;10.88;100.00;96275.81;5073061;28;20208;-74
2023/10/26 05:53:10;;;;;;;1.50;0.77;;;;;;;11.01;100.00;96259.34;5073132;28;20215;-74
2023/10/26 05:55:39;;;;;;;2.70;0.80;;;;;;;11.09;100.00;96266.81;5073511;28;20307;-74
2023/10/26 05:58:08;;;;;;;1.93;0.80;;;;;;;11.13;100.00;96275.06;5073008;28;20229;-74
2023/10/26 06:00:34;;;;;;;3.00;1.00;;;;;;;11.23;100.00;96259.09;5073114;28;20220;-74
2023/10/26 06:03:00;;;;;;;2.23;0.80;;;;;;;11.10;100.00;96252.44;5073285;28;20200;-74
2023/10/26 06:05:28;;;;;;;2.90;0.70;;;;;;;11.13;100.00;96258.03;5073185;28;20287;-74
2023/10/26 06:07:54;;;;;;;4.63;1.00;;;;;;;11.22;100.00;96257.50;5073131;28;20771;-74
2023/10/26 06:10:21;;;;;;;2.57;1.13;;;;;;;11.05;100.00;96268.41;5072633;28;20667;-74
2023/10/26 06:12:47;;;;;;;1.57;0.70;;;;;;;11.27;100.00;96263.63;5072700;28;20671;-74
2023/10/26 06:15:13;;;;;;;2.40;0.83;;;;;;;11.27;100.00;96269.72;5072393;28;20574;-74
2023/10/26 06:17:40;;;;;;;1.83;0.67;;;;;;;11.31;100.00;96262.03;5072547;28;20239;-74
2023/10/26 06:20:07;;;;;;;1.60;0.70;;;;;;;11.38;100.00;96262.53;5072739;28;20214;-74
2023/10/26 06:22:34;;;;;;;3.63;0.80;;;;;;;11.34;100.00;96266.03;5072940;28;20232;-74
2023/10/26 06:25:00;;;;;;;2.40;0.80;;;;;;;11.38;100.00;96269.72;5073047;28;20207;-74
2023/10/26 06:27:26;;;;;;;3.40;0.87;;;;;;;11.37;100.00;96274.25;5072748;28;20225;-74
2023/10/26 06:29:53;;;;;;;1.53;1.00;;;;;;;11.30;100.00;96272.94;5072796;28;20204;-74
2023/10/26 06:32:19;;;;;;;1.60;0.70;;;;;;;11.42;100.00;96271.59;5073235;28;20219;-74
2023/10/26 06:34:45;;;;;;;3.40;0.90;;;;;;;11.32;100.00;96275.03;5072582;28;20284;-74
2023/10/26 06:37:12;;;;;;;1.40;0.83;;;;;;;11.38;100.00;96273.19;5074888;28;20260;-74
2023/10/26 06:39:38;;;;;;;1.00;0.80;;;;;;;11.47;100.00;96263.59;5076623;28;20200;-74
2023/10/26 06:42:05;;;;;;;2.80;1.00;;;;;;;11.37;100.00;96274.25;5076824;28;20255;-74
2023/10/26 06:44:31;;;;;;;1.27;0.93;;;;;;;11.42;100.00;96265.47;5076399;28;20204;-74
2023/10/26 06:46:58;;;;;;;2.37;0.90;;;;;;;11.33;100.00;96259.88;5076398;28;20202;-74
2023/10/26 06:49:24;;;;;;;3.77;1.10;;;;;;;11.33;100.00;96270.53;5075650;28;20695;-74
2023/10/26 06:51:50;;;;;;;0.80;0.80;;;;;;;11.46;100.00;96266.53;5076712;28;20211;-74
2023/10/26 06:54:17;;;;;;;3.73;0.90;;;;;;;11.42;100.00;96271.59;5076471;28;20208;-74
2023/10/26 06:56:44;;;;;;;3.20;0.80;;;;;;;11.37;100.00;96255.63;5076576;28;20229;-74
2023/10/26 06:59:10;;;;;;;2.63;0.90;;;;;;;11.41;100.00;96259.38;5076273;28;20267;-74
2023/10/26 07:01:38;;;;;;;2.30;1.07;;;;;;;11.57;100.00;96270.78;5075772;28;20212;-74
2023/10/26 07:04:05;;;;;;;3.03;1.00;;;;;;;11.48;100.00;96264.41;5076474;28;20231;-74
2023/10/26 07:06:31;;;;;;;1.47;0.87;;;;;;;11.50;100.00;96273.72;5076374;28;20201;-74
2023/10/26 07:08:58;;;;;;;2.10;1.00;;;;;;;11.58;100.00;96281.16;5076228;28;20230;-74
2023/10/26 07:11:24;;;;;;;2.33;1.00;;;;;;;11.55;100.00;96283.56;5076163;28;20287;-74
2023/10/26 07:13:51;;;;;;;2.00;0.80;;;;;;;11.60;100.00;96268.41;5075919;28;20209;-74
2023/10/26 07:16:17;;;;;;;1.93;1.30;;;;;;;11.60;100.00;96267.59;5076226;28;20254;-74
2023/10/26 07:18:44;;;;;;;2.47;0.90;;;;;;;11.68;100.00;96259.91;5075774;28;20714;-74
2023/10/26 07:21:10;;;;;;;2.67;0.90;;;;;;;11.82;100.00;96266.25;5075886;28;20671;-74
2023/10/26 07:23:37;;;;;;;3.27;1.03;;;;;;;11.78;100.00;96270.53;5076092;28;20208;-74
2023/10/26 07:26:03;;;;;;;2.03;0.83;;;;;;;11.79;100.00;96271.31;5076114;28;20288;-74
2023/10/26 07:28:30;;;;;;;3.33;1.10;;;;;;;11.78;100.00;96270.53;5075566;28;20226;-74
2023/10/26 07:30:57;;;;;;;1.60;0.70;;;;;;;11.85;100.00;96272.91;5075496;28;20567;-74
2023/10/26 07:33:23;;;;;;;2.33;0.80;;;;;;;11.97;100.00;96273.38;5075624;28;20212;-74
2023/10/26 07:35:52;;;;;;;2.50;0.97;;;;;;;11.84;100.00;96274.75;5075761;28;20254;-74
2023/10/26 07:38:19;;;;;;;1.00;0.90;;;;;;;11.93;100.00;96267.81;5075698;28;20250;-74
2023/10/26 07:40:49;;;;;;;1.73;0.90;;;;;;;11.98;100.00;96265.13;5075693;28;20210;-74
2023/10/26 07:43:16;;;;;;;3.30;0.80;;;;;;;11.89;100.00;96269.41;5075624;28;20224;-74
2023/10/26 07:45:42;;;;;;;3.13;1.00;;;;;;;12.03;100.00;96265.13;5075829;28;20231;-74
2023/10/26 07:48:08;;;;;;;1.90;0.70;;;;;;;12.04;100.00;96263.25;5075078;28;20314;-74
2023/10/26 07:50:35;;;;;;;2.50;0.90;;;;;;;12.12;100.00;96268.81;5075524;28;20568;-74
2023/10/26 07:53:01;;;;;;;1.47;0.73;;;;;;;12.02;100.00;96260.88;5075865;28;20283;-74
2023/10/26 07:55:28;;;;;;;2.60;0.80;;;;;;;12.09;100.00;96256.06;5075493;28;20218;-74
2023/10/26 07:57:54;;;;;;;2.63;1.10;;;;;;;12.06;100.00;96269.09;5075148;28;20257;-74
2023/10/26 08:00:21;;;;;;;1.93;1.37;;;;;;;12.19;100.00;96261.34;5075024;28;20224;-74
2023/10/26 08:02:47;;;;;;;2.10;1.30;;;;;;;12.28;100.00;96254.38;5075306;28;20642;-74
2023/10/26 08:05:15;;;;;;;2.73;1.20;;;;;;;12.13;100.00;96256.31;5075154;28;20207;-74
2023/10/26 08:07:42;;;;;;;2.33;1.20;;;;;;;12.24;100.00;96263.19;5075365;28;20220;-74
2023/10/26 08:10:10;;;;;;;2.13;1.13;;;;;;;12.22;100.00;96250.16;5075380;28;20211;-74
2023/10/26 08:12:36;;;;;;;1.57;1.10;;;;;;;12.18;100.00;96234.97;5075316;28;20253;-74
2023/10/26 08:15:04;;;;;;;1.30;1.00;;;;;;;12.19;100.00;96226.72;5075012;28;20207;-74
2023/10/26 08:17:34;;;;;;;2.83;1.20;;;;;;;12.26;100.00;96243.19;5075284;28;20236;-74
2023/10/26 08:20:04;;;;;;;2.23;1.10;;;;;;;12.25;100.00;96246.94;5075109;28;20260;-74
2023/10/26 08:22:30;;;;;;;1.53;1.10;;;;;;;12.36;100.00;96240.50;5074310;28;20211;-74
2023/10/26 08:24:57;;;;;;;7.60;5.20;;;;;;;12.37;100.00;96252.75;5074829;28;20546;-74
2023/10/26 08:27:24;;;;;;;3.23;1.10;;;;;;;12.35;100.00;96257.53;5074999;28;20227;-74
2023/10/26 08:29:51;;;;;;;1.83;1.10;;;;;;;12.36;100.00;96259.16;5074942;28;20217;-74
2023/10/26 08:32:18;;;;;;;2.50;1.10;;;;;;;12.37;100.00;96257.28;5074941;28;20207;-74
2023/10/26 08:34:45;;;;;;;1.23;0.93;;;;;;;12.52;100.00;96255.34;5075145;28;20212;-74
2023/10/26 08:37:12;;;;;;;2.27;1.10;;;;;;;12.49;100.00;96247.09;5074557;28;20233;-74
2023/10/26 08:39:38;;;;;;;0.83;0.83;;;;;;;12.54;100.00;96250.53;5074834;28;20203;-74
2023/10/26 08:42:05;;;;;;;1.00;0.87;;;;;;;12.53;100.00;96245.47;5074400;28;20290;-74
2023/10/26 08:44:32;;;;;;;1.30;0.90;;;;;;;12.46;100.00;96240.44;5074260;28;20212;-74
2023/10/26 08:47:02;;;;;;;1.70;1.00;;;;;;;12.66;100.00;96260.88;5074058;28;20208;-74
2023/10/26 08:49:30;;;;;;;2.03;1.00;;;;;;;12.59;100.00;96260.38;5073999;28;20671;-74
2023/10/26 08:51:57;;;;;;;1.93;1.00;;;;;;;12.66;100.00;96268.88;5074047;28;20210;-74
2023/10/26 08:54:24;;;;;;;2.30;1.20;;;;;;;12.65;100.00;96285.91;5074556;28;20208;-74
2023/10/26 08:56:50;;;;;;;2.13;1.30;;;;;;;12.83;100.00;96282.63;5074323;28;20315;-74
2023/10/26 08:59:16;;;;;;;6.20;2.67;;;;;;;12.75;100.00;96269.91;5073831;28;20246;-74
2023/10/26 09:01:49;;;;;;;4.37;2.47;;;;;;;12.64;100.00;96284.31;5073890;28;20218;-74
2023/10/26 09:04:15;;;;;;;4.50;2.37;;;;;;;12.85;100.00;96269.81;5073818;28;20208;-74
2023/10/26 09:06:51;;;;;;;2.73;1.67;;;;;;;12.66;100.00;96267.00;5074092;28;20207;-74
2023/10/26 09:09:18;;;;;;;6.77;2.50;;;;;;;12.62;100.00;96265.94;5074076;28;20313;-74
2023/10/26 09:11:48;;;;;;;2.50;1.60;;;;;;;12.58;100.00;96256.94;5073687;28;20237;-74
2023/10/26 09:14:23;;;;;;;1.83;1.57;;;;;;;12.64;100.00;96252.34;5073567;28;20210;-74
2023/10/26 09:16:50;;;;;;;2.57;1.70;;;;;;;12.80;100.00;96265.31;5073567;28;20272;-74
2023/10/26 09:19:19;;;;;;;3.00;2.20;;;;;;;12.50;100.00;96262.00;5073822;28;20234;-74
2023/10/26 09:21:52;;;;;;;7.70;2.30;;;;;;;12.58;100.00;96251.59;5073838;28;20212;-74
2023/10/26 09:24:26;;;;;;;4.03;2.00;;;;;;;12.59;100.00;96266.50;5073676;28;20204;-74
2023/10/26 09:27:03;;;;;;;3.27;2.17;;;;;;;12.54;100.00;96261.22;5073579;28;20699;-74
2023/10/26 09:29:39;;;;;;;5.43;2.90;;;;;;;12.68;100.00;96262.19;5073882;28;20218;-74
2023/10/26 09:32:06;;;;;;;4.80;2.37;;;;;;;12.66;100.00;96255.53;5073542;28;20614;-74
2023/10/26 09:34:41;;;;;;;4.97;2.47;;;;;;;12.81;100.00;96255.44;5073738;28;20208;-74
2023/10/26 09:37:08;;;;;;;4.27;2.60;;;;;;;12.82;100.00;96252.50;5073531;28;20356;-74
2023/10/26 09:39:37;;;;;;;4.53;2.40;;;;;;;12.71;100.00;96263.50;5073708;28;20207;-74
2023/10/26 09:42:05;;;;;;;5.10;2.70;;;;;;;12.64;100.00;96257.66;5073481;28;20212;-74
2023/10/26 09:44:32;;;;;;;4.43;2.77;;;;;;;12.48;100.00;96264.16;5073613;28;20233;-74
2023/10/26 09:47:00;;;;;;;4.77;2.33;;;;;;;12.47;100.00;96268.69;5073155;28;20669;-74
2023/10/26 09:49:28;;;;;;;2.63;2.17;;;;;;;12.53;100.00;96288.13;5073596;28;20659;-74
2023/10/26 09:51:55;;;;;;;5.67;2.23;;;;;;;12.54;100.00;96301.19;5073417;28;20265;-74
2023/10/26 09:54:35;;;;;;;4.13;2.50;;;;;;;12.53;100.00;96310.22;5073453;28;20306;-74
2023/10/26 09:57:27;;;;;;;3.23;2.40;;;;;;;12.28;100.00;96297.00;5073509;28;20215;-74
2023/10/26 09:59:55;;;;;;;3.57;2.70;;;;;;;12.22;100.00;96298.13;5035255;28;20679;-74
2023/10/26 10:02:22;;;;;;;4.50;2.67;;;;;;;12.23;100.00;96270.41;5073536;28;20191;-74
2023/10/26 10:04:58;;;;;;;4.43;2.93;;;;;;;12.21;100.00;96261.88;5073379;28;20211;-74
2023/10/26 10:07:45;;;;;;;5.33;3.53;;;;;;;12.14;100.00;96272.03;5073853;28;20249;-74
2023/10/26 10:10:15;;;;;;;7.00;3.60;;;;;;;12.08;100.00;96264.31;5072925;28;20222;-74
2023/10/26 10:12:42;;;;;;;5.27;3.27;;;;;;;12.00;100.00;96257.69;5073175;28;20647;-74
2023/10/26 10:15:13;;;;;;;3.83;3.50;;;;;;;12.22;100.00;96255.50;5073108;28;20541;-74
2023/10/26 10:17:44;;;;;;;4.63;3.90;;;;;;;12.25;100.00;96259.47;5073160;28;20229;-74
2023/10/26 10:20:17;;;;;;;5.30;4.03;;;;;;;12.26;100.00;96267.16;5072944;28;20200;-74
2023/10/26 10:22:46;;;;;;;7.03;4.03;;;;;;;12.21;100.00;96277.06;5073325;28;20212;-74
2023/10/26 10:25:14;;;;;;;7.80;4.00;;;;;;;12.23;100.00;96299.69;5073158;28;20219;-74
2023/10/26 10:27:41;;;;;;;5.33;3.83;;;;;;;12.15;100.00;96284.28;5073234;28;20225;-74
2023/10/26 10:30:12;;;;;;;5.27;4.17;;;;;;;12.11;100.00;96283.22;5072904;28;20219;-74
2023/10/26 10:32:44;;;;;;;7.13;4.10;;;;;;;12.07;100.00;96276.06;5073164;28;20201;-74
2023/10/26 10:35:12;;;;;;;4.60;3.47;;;;;;;12.17;100.00;96279.44;5073084;28;20569;-74
2023/10/26 10:37:39;;;;;;;4.20;3.10;;;;;;;12.44;100.00;96268.44;5073007;28;20232;-74
2023/10/26 10:40:14;;;;;;;5.30;3.20;;;;;;;12.57;100.00;96273.19;5073041;28;20287;-74
2023/10/26 10:42:48;;;;;;;3.10;2.80;;;;;;;12.41;100.00;96274.31;5073021;28;20205;-74
2023/10/26 10:45:15;;;;;;;4.57;2.90;;;;;;;12.28;100.00;96273.03;5072694;28;20187;-74
2023/10/26 10:47:43;;;;;;;3.63;3.00;;;;;;;12.26;100.00;96272.50;5073301;28;20228;-74
2023/10/26 10:50:26;;;;;;;3.60;3.03;;;;;;;12.29;100.00;96273.84;5072925;28;20212;-74
2023/10/26 10:52:55;;;;;;;3.33;3.00;;;;;;;12.32;100.00;96278.63;5073056;28;20197;-74
2023/10/26 10:55:25;;;;;;;3.23;2.93;;;;;;;12.60;100.00;96278.75;5072813;28;20235;-74
2023/10/26 10:58:00;;;;;;;3.23;2.93;;;;;;;12.55;100.00;96281.44;5072423;28;20236;-74
2023/10/26 11:00:48;;;;;;;3.57;2.97;;;;;;;12.53;100.00;96275.59;5072791;28;20221;-74
2023/10/26 11:03:18;;;;;;;3.57;3.27;;;;;;;12.43;100.00;96280.19;5072737;28;20196;-74
2023/10/26 11:05:45;;;;;;;4.93;3.00;;;;;;;12.41;100.00;96280.44;5073044;28;20205;-74
2023/10/26 11:08:12;;;;;;;4.67;3.93;;;;;;;12.42;100.00;96271.38;5072574;28;20222;-74
2023/10/26 11:10:38;;;;;;;3.77;3.37;;;;;;;12.55;100.00;96261.97;5072754;28;20206;-74
2023/10/26 11:13:05;;;;;;;4.97;3.47;;;;;;;12.71;100.00;96255.50;5072921;28;20203;-73
2023/10/26 11:15:37;;;;;;;3.43;3.00;;;;;;;12.89;100.00;96252.97;5072668;28;20263;-73
2023/10/26 11:18:05;;;;;;;3.30;3.00;;;;;;;12.83;100.00;96256.75;5072264;28;20238;-75
2023/10/26 11:20:45;;;;;;;3.10;2.80;;;;;;;12.85;100.00;96251.16;5072282;28;20204;-75
2023/10/26 11:23:14;;;;;;;3.43;3.13;;;;;;;13.01;100.00;96256.16;5074397;28;20210;-75
2023/10/26 11:25:41;;;;;;;2.40;2.20;;;;;;;13.06;100.00;96266.78;5076720;28;20213;-75